createdAt,value
2023-01-29T00:00:12.686Z,42.10
2023-01-29T00:02:40.778Z,42.20
2023-01-29T00:05:26.576Z,42.10
2023-01-29T00:07:56.887Z,42.10
2023-01-29T00:10:24.972Z,42.10
2023-01-29T00:12:53.018Z,42.00
2023-01-29T00:15:21.561Z,42.00
2023-01-29T00:17:49.581Z,42.70
2023-01-29T00:20:18.401Z,41.90
2023-01-29T00:22:46.571Z,41.80
2023-01-29T00:25:15.967Z,41.70
2023-01-29T00:27:44.725Z,41.70
2023-01-29T00:30:14.851Z,42.30
2023-01-29T00:32:43.143Z,41.50
2023-01-29T00:35:11.434Z,42.10
2023-01-29T00:37:39.422Z,41.50
2023-01-29T00:40:08.575Z,41.40
2023-01-29T00:42:55.303Z,41.40
2023-01-29T00:45:23.257Z,41.40
2023-01-29T00:47:51.239Z,41.40
2023-01-29T00:50:19.539Z,41.30
2023-01-29T00:52:49.641Z,41.30
2023-01-29T00:55:17.724Z,42.00
2023-01-29T00:57:47.077Z,41.30
2023-01-29T01:00:16.743Z,41.40
2023-01-29T01:03:02.528Z,41.30
2023-01-29T01:05:30.554Z,41.30
2023-01-29T01:07:59.551Z,41.20
2023-01-29T01:10:27.682Z,41.30
2023-01-29T01:12:57.920Z,41.30
2023-01-29T01:15:27.099Z,41.20
2023-01-29T01:17:55.508Z,41.30
2023-01-29T01:20:23.511Z,41.30
2023-01-29T01:22:51.495Z,41.30
2023-01-29T01:25:19.546Z,41.30
2023-01-29T01:27:47.706Z,41.20
2023-01-29T01:30:17.655Z,41.30
2023-01-29T01:32:46.036Z,41.30
2023-01-29T01:35:14.813Z,41.20
2023-01-29T01:37:42.808Z,41.20
2023-01-29T01:40:18.091Z,41.90
2023-01-29T01:42:46.616Z,41.20
2023-01-29T01:45:21.638Z,41.20
2023-01-29T01:47:50.272Z,41.30
2023-01-29T01:50:19.894Z,41.20
2023-01-29T01:52:49.740Z,41.20
2023-01-29T01:55:18.725Z,41.20
2023-01-29T01:57:47.303Z,41.10
2023-01-29T02:00:16.667Z,41.10
2023-01-29T02:03:03.619Z,41.20
2023-01-29T02:05:49.500Z,41.10
2023-01-29T02:08:35.884Z,41.10
2023-01-29T02:11:03.842Z,41.10
2023-01-29T02:13:31.844Z,41.10
2023-01-29T02:15:59.862Z,41.10
2023-01-29T02:18:29.321Z,41.10
2023-01-29T02:21:07.009Z,41.10
2023-01-29T02:24:01.728Z,41.00
2023-01-29T02:26:38.780Z,41.10
2023-01-29T02:32:11.299Z,41.00
2023-01-29T02:34:59.970Z,41.10
2023-01-29T02:37:31.953Z,41.00
2023-01-29T02:40:04.175Z,41.10
2023-01-29T02:42:35.818Z,41.00
2023-01-29T02:45:07.056Z,41.00
2023-01-29T02:47:37.229Z,41.00
2023-01-29T02:50:07.663Z,41.00
2023-01-29T02:52:37.706Z,41.00
2023-01-29T02:55:08.731Z,41.00
2023-01-29T02:57:38.371Z,41.00
2023-01-29T03:00:09.097Z,41.10
2023-01-29T03:02:41.653Z,41.00
2023-01-29T03:05:12.788Z,41.00
2023-01-29T03:07:44.998Z,40.90
2023-01-29T03:10:17.347Z,40.90
2023-01-29T03:12:45.892Z,40.90
2023-01-29T03:15:16.960Z,40.80
2023-01-29T03:17:49.121Z,40.80
2023-01-29T03:20:19.317Z,40.80
2023-01-29T03:22:51.551Z,40.80
2023-01-29T03:25:37.242Z,41.40
2023-01-29T03:28:23.616Z,40.70
2023-01-29T03:31:10.733Z,40.70
2023-01-29T03:33:43.941Z,40.70
2023-01-29T03:36:14.350Z,40.70
2023-01-29T03:38:42.301Z,40.70
2023-01-29T03:41:12.083Z,40.60
2023-01-29T03:43:42.950Z,40.60
2023-01-29T03:46:18.436Z,40.60
2023-01-29T03:48:50.907Z,40.60
2023-01-29T03:51:23.137Z,40.60
2023-01-29T03:53:52.659Z,40.60
2023-01-29T03:56:27.359Z,40.60
2023-01-29T03:58:57.489Z,40.60
2023-01-29T04:01:27.124Z,40.60
2023-01-29T04:03:58.082Z,40.60
2023-01-29T04:06:27.628Z,40.60
2023-01-29T04:08:58.651Z,40.50
2023-01-29T04:11:26.589Z,40.50
2023-01-29T04:13:54.571Z,40.50
2023-01-29T04:16:24.365Z,40.50
2023-01-29T04:18:52.652Z,40.50
2023-01-29T04:21:21.988Z,40.40
2023-01-29T04:23:49.916Z,40.40
2023-01-29T04:26:27.043Z,40.40
2023-01-29T04:29:02.755Z,40.40
2023-01-29T04:31:33.703Z,40.40
2023-01-29T04:34:06.646Z,40.30
2023-01-29T04:36:39.392Z,40.30
2023-01-29T04:39:12.112Z,40.30
2023-01-29T04:41:43.114Z,40.30
2023-01-29T04:44:14.846Z,40.20
2023-01-29T04:46:46.984Z,40.20
2023-01-29T04:49:19.225Z,40.20
2023-01-29T04:51:52.456Z,40.20
2023-01-29T04:54:25.712Z,40.20
2023-01-29T04:56:56.380Z,40.20
2023-01-29T04:59:26.516Z,40.10
2023-01-29T05:01:54.482Z,40.10
2023-01-29T05:04:22.781Z,40.10
2023-01-29T05:06:52.882Z,40.10
2023-01-29T05:09:20.908Z,40.10
2023-01-29T05:11:48.879Z,40.10
2023-01-29T05:14:17.768Z,40.10
2023-01-29T05:16:47.322Z,40.70
2023-01-29T05:19:16.280Z,40.00
2023-01-29T05:21:45.707Z,40.00
2023-01-29T05:24:16.528Z,40.00
2023-01-29T05:27:02.593Z,40.20
2023-01-29T05:29:30.518Z,40.00
2023-01-29T05:31:58.563Z,40.00
2023-01-29T05:34:26.509Z,40.00
2023-01-29T05:36:54.667Z,40.00
2023-01-29T05:39:24.249Z,40.00
2023-01-29T05:41:52.201Z,40.00
2023-01-29T05:44:20.444Z,39.90
2023-01-29T05:46:48.467Z,40.00
2023-01-29T05:49:17.394Z,39.90
2023-01-29T05:51:45.362Z,39.90
2023-01-29T05:54:13.410Z,40.50
2023-01-29T05:56:42.727Z,39.90
2023-01-29T05:59:10.713Z,39.90
2023-01-29T06:01:38.716Z,39.90
2023-01-29T06:04:06.757Z,39.90
2023-01-29T06:06:34.705Z,39.90
2023-01-29T06:09:02.670Z,39.90
2023-01-29T06:11:30.639Z,40.50
2023-01-29T06:13:59.995Z,39.90
2023-01-29T06:16:28.067Z,39.90
2023-01-29T06:18:56.138Z,39.90
2023-01-29T06:21:24.088Z,39.90
2023-01-29T06:23:53.805Z,39.90
2023-01-29T06:26:21.880Z,40.00
2023-01-29T06:28:50.267Z,40.10
2023-01-29T06:31:36.826Z,40.30
2023-01-29T06:34:05.724Z,40.30
2023-01-29T06:36:33.691Z,40.40
2023-01-29T06:39:01.656Z,40.50
2023-01-29T06:41:29.657Z,40.50
2023-01-29T06:43:57.680Z,41.30
2023-01-29T06:46:27.111Z,40.70
2023-01-29T06:48:55.121Z,40.80
2023-01-29T06:51:23.357Z,40.90
2023-01-29T06:53:51.352Z,41.60
2023-01-29T06:56:19.334Z,41.10
2023-01-29T06:58:47.307Z,41.20
2023-01-29T07:01:29.243Z,41.30
2023-01-29T07:04:04.456Z,41.40
2023-01-29T07:06:32.708Z,41.40
2023-01-29T07:09:00.664Z,41.50
2023-01-29T07:11:28.632Z,41.50
2023-01-29T07:13:56.606Z,41.50
2023-01-29T07:16:25.042Z,41.50
2023-01-29T07:18:53.188Z,41.50
2023-01-29T07:21:22.536Z,41.40
2023-01-29T07:23:50.558Z,41.40
2023-01-29T07:26:18.601Z,41.30
2023-01-29T07:28:46.625Z,41.30
2023-01-29T07:31:15.268Z,41.20
2023-01-29T07:33:44.440Z,41.10
2023-01-29T07:36:12.611Z,41.10
2023-01-29T07:38:41.981Z,41.10
2023-01-29T07:41:11.172Z,41.00
2023-01-29T07:43:39.206Z,40.90
2023-01-29T07:46:07.227Z,41.00
2023-01-29T07:48:35.281Z,41.00
2023-01-29T07:51:03.292Z,40.90
2023-01-29T07:53:31.346Z,40.90
2023-01-29T07:56:01.053Z,40.90
2023-01-29T07:58:29.036Z,40.90
2023-01-29T08:00:56.998Z,40.90
2023-01-29T08:03:25.067Z,40.80
2023-01-29T08:05:53.082Z,40.90
2023-01-29T08:08:21.093Z,41.00
2023-01-29T08:10:49.041Z,41.00
2023-01-29T08:13:18.419Z,41.70
2023-01-29T08:15:46.418Z,41.10
2023-01-29T08:18:14.931Z,41.10
2023-01-29T08:20:42.912Z,41.10
2023-01-29T08:23:16.120Z,41.00
2023-01-29T08:25:44.089Z,41.00
2023-01-29T08:28:12.473Z,41.00
2023-01-29T08:30:42.027Z,40.80
2023-01-29T08:33:10.067Z,40.80
2023-01-29T08:35:38.054Z,40.70
2023-01-29T08:38:06.378Z,40.70
2023-01-29T08:40:35.517Z,40.70
2023-01-29T08:43:05.559Z,40.70
2023-01-29T08:45:35.470Z,40.80
2023-01-29T08:48:05.151Z,40.70
2023-01-29T08:50:34.868Z,40.80
2023-01-29T08:53:03.145Z,40.80
2023-01-29T08:55:31.391Z,40.80
2023-01-29T08:57:59.330Z,40.70
2023-01-29T09:00:27.487Z,40.70
2023-01-29T09:02:55.433Z,40.60
2023-01-29T09:05:24.873Z,40.70
2023-01-29T09:07:54.213Z,40.70
2023-01-29T09:10:22.329Z,40.60
2023-01-29T09:12:50.383Z,40.60
2023-01-29T09:15:18.865Z,40.60
2023-01-29T09:17:47.154Z,40.70
2023-01-29T09:20:15.121Z,40.70
2023-01-29T09:22:44.749Z,40.70
2023-01-29T09:25:12.718Z,40.80
2023-01-29T09:27:40.674Z,40.80
2023-01-29T09:30:09.549Z,40.80
2023-01-29T09:32:53.288Z,40.80
2023-01-29T09:35:22.117Z,40.70
2023-01-29T09:37:51.664Z,40.70
2023-01-29T09:40:25.888Z,40.60
2023-01-29T09:42:56.790Z,40.50
2023-01-29T09:45:25.968Z,40.40
2023-01-29T09:47:54.015Z,40.30
2023-01-29T09:50:24.719Z,40.30
2023-01-29T09:52:54.773Z,40.20
2023-01-29T09:55:24.410Z,40.10
2023-01-29T09:57:54.643Z,40.00
2023-01-29T10:00:25.645Z,39.90
2023-01-29T10:03:01.649Z,39.80
2023-01-29T10:05:38.699Z,39.60
2023-01-29T10:08:45.306Z,39.60
2023-01-29T10:11:18.546Z,39.50
2023-01-29T10:13:49.919Z,39.40
2023-01-29T10:16:34.078Z,39.40
2023-01-29T10:19:19.508Z,39.40
2023-01-29T10:21:58.247Z,39.30
2023-01-29T10:24:34.176Z,39.30
2023-01-29T10:27:02.199Z,39.30
2023-01-29T10:29:30.192Z,39.30
2023-01-29T10:31:59.647Z,39.30
2023-01-29T10:34:30.454Z,39.30
2023-01-29T10:36:58.445Z,39.30
2023-01-29T10:39:28.676Z,39.30
2023-01-29T10:42:03.512Z,39.40
2023-01-29T10:44:39.972Z,39.30
2023-01-29T10:47:33.959Z,39.20
2023-01-29T10:50:11.483Z,39.10
2023-01-29T10:52:44.803Z,38.90
2023-01-29T10:55:22.260Z,38.80
2023-01-29T10:57:56.922Z,39.40
2023-01-29T11:00:25.967Z,38.70
2023-01-29T11:02:54.127Z,38.50
2023-01-29T11:05:27.033Z,38.50
2023-01-29T11:08:02.489Z,38.40
2023-01-29T11:10:32.984Z,38.50
2023-01-29T11:13:00.960Z,38.30
2023-01-29T11:15:30.660Z,38.40
2023-01-29T11:18:05.660Z,38.40
2023-01-29T11:20:34.036Z,38.40
2023-01-29T11:23:02.006Z,38.30
2023-01-29T11:25:32.703Z,38.40
2023-01-29T11:28:01.902Z,38.40
2023-01-29T11:30:31.369Z,38.40
2023-01-29T11:33:09.504Z,38.50
2023-01-29T11:35:37.730Z,38.50
2023-01-29T11:38:10.571Z,38.60
2023-01-29T11:40:42.757Z,38.70
2023-01-29T11:43:18.430Z,38.70
2023-01-29T11:45:46.480Z,39.40
2023-01-29T11:48:16.109Z,38.80
2023-01-29T11:50:44.321Z,38.80
2023-01-29T11:53:40.577Z,38.90
2023-01-29T11:56:18.091Z,39.00
2023-01-29T11:58:46.045Z,39.10
2023-01-29T12:01:14.137Z,39.20
2023-01-29T12:03:44.458Z,39.20
2023-01-29T12:06:18.392Z,39.20
2023-01-29T12:08:46.421Z,39.20
2023-01-29T12:11:16.934Z,39.20
2023-01-29T12:13:44.999Z,39.20
2023-01-29T12:16:22.769Z,39.10
2023-01-29T12:18:53.220Z,39.10
2023-01-29T12:21:23.961Z,38.90
2023-01-29T12:23:55.355Z,38.90
2023-01-29T12:26:26.985Z,38.80
2023-01-29T12:29:08.341Z,39.40
2023-01-29T12:31:39.661Z,39.40
2023-01-29T12:34:11.967Z,38.70
2023-01-29T12:36:41.885Z,38.70
2023-01-29T12:39:11.101Z,38.70
2023-01-29T12:41:41.691Z,38.70
2023-01-29T12:44:14.604Z,38.60
2023-01-29T12:46:44.458Z,38.60
2023-01-29T12:49:15.009Z,38.60
2023-01-29T12:51:48.786Z,38.50
2023-01-29T12:54:18.937Z,38.40
2023-01-29T12:56:49.416Z,38.40
2023-01-29T12:59:19.973Z,38.30
2023-01-29T13:01:50.037Z,38.30
2023-01-29T13:04:20.128Z,38.20
2023-01-29T13:06:49.244Z,38.20
2023-01-29T13:09:19.798Z,38.10
2023-01-29T13:11:51.515Z,38.10
2023-01-29T13:14:21.340Z,38.00
2023-01-29T13:16:50.480Z,38.00
2023-01-29T13:19:24.091Z,38.00
2023-01-29T13:21:52.083Z,38.00
2023-01-29T13:24:21.341Z,38.00
2023-01-29T13:26:50.781Z,38.00
2023-01-29T13:29:22.802Z,37.90
2023-01-29T13:31:51.190Z,37.90
2023-01-29T13:34:23.383Z,37.80
2023-01-29T13:36:52.309Z,37.70
2023-01-29T13:39:25.731Z,37.70
2023-01-29T13:41:55.482Z,37.60
2023-01-29T13:44:25.581Z,37.50
2023-01-29T13:46:58.875Z,37.50
2023-01-29T13:49:32.932Z,37.50
2023-01-29T13:52:00.906Z,37.40
2023-01-29T13:54:29.257Z,37.30
2023-01-29T13:57:02.565Z,37.20
2023-01-29T14:00:00.803Z,37.30
2023-01-29T14:02:29.244Z,37.20
2023-01-29T14:05:30.806Z,37.10
2023-01-29T14:07:59.342Z,37.20
2023-01-29T14:10:27.696Z,37.20
2023-01-29T14:13:21.195Z,37.30
2023-01-29T14:16:33.068Z,37.20
2023-01-29T14:19:01.936Z,37.30
2023-01-29T14:21:31.823Z,37.30
2023-01-29T14:24:00.499Z,37.30
2023-01-29T14:26:32.295Z,37.40
2023-01-29T14:29:06.606Z,37.50
2023-01-29T14:31:53.366Z,37.50
2023-01-29T14:34:27.281Z,37.50
2023-01-29T14:36:56.825Z,37.50
2023-01-29T14:39:36.792Z,37.60
2023-01-29T14:42:06.389Z,37.60
2023-01-29T14:44:54.364Z,37.60
2023-01-29T14:47:22.725Z,37.70
2023-01-29T14:49:53.843Z,37.70
2023-01-29T14:52:22.964Z,37.70
2023-01-29T14:54:51.126Z,37.60
2023-01-29T14:57:19.417Z,37.70
2023-01-29T14:59:51.584Z,37.60
2023-01-29T15:02:21.180Z,37.70
2023-01-29T15:04:50.122Z,38.30
2023-01-29T15:07:24.667Z,37.60
2023-01-29T15:09:57.287Z,37.60
2023-01-29T15:12:29.892Z,37.60
2023-01-29T15:15:07.548Z,37.60
2023-01-29T15:17:39.424Z,37.70
2023-01-29T15:20:30.302Z,37.80
2023-01-29T15:22:58.495Z,37.80
2023-01-29T15:25:26.465Z,37.80
2023-01-29T15:27:54.456Z,37.80
2023-01-29T15:30:28.302Z,37.90
2023-01-29T15:32:56.330Z,37.90
2023-01-29T15:35:29.406Z,38.00
2023-01-29T15:38:01.683Z,38.00
2023-01-29T15:40:29.865Z,38.10
2023-01-29T15:42:57.943Z,38.10
2023-01-29T15:45:31.222Z,38.10
2023-01-29T15:48:05.462Z,38.20
2023-01-29T15:50:34.557Z,38.20
2023-01-29T15:53:04.488Z,38.20
2023-01-29T15:55:32.494Z,38.20
2023-01-29T15:58:00.944Z,38.20
2023-01-29T16:00:30.664Z,38.30
2023-01-29T16:03:00.872Z,38.30
2023-01-29T16:05:29.913Z,38.30
2023-01-29T16:07:58.083Z,38.40
2023-01-29T16:10:27.238Z,38.40
2023-01-29T16:12:55.250Z,38.40
2023-01-29T16:15:34.510Z,38.40
2023-01-29T16:18:03.662Z,38.40
2023-01-29T16:20:38.374Z,38.40
2023-01-29T16:23:06.766Z,38.50
2023-01-29T16:25:35.287Z,38.50
2023-01-29T16:28:05.422Z,38.50
2023-01-29T16:30:34.930Z,38.50
2023-01-29T16:33:04.325Z,38.50
2023-01-29T16:35:32.373Z,38.60
2023-01-29T16:38:03.619Z,38.50
2023-01-29T16:40:33.402Z,38.50
2023-01-29T16:43:47.797Z,38.50
2023-01-29T16:46:34.041Z,38.60
2023-01-29T16:49:02.482Z,38.60
2023-01-29T16:51:31.057Z,38.60
2023-01-29T16:54:00.603Z,38.60
2023-01-29T16:56:30.392Z,38.60
2023-01-29T16:58:58.376Z,38.60
2023-01-29T17:01:27.056Z,38.70
2023-01-29T17:04:01.866Z,38.70
2023-01-29T17:06:30.274Z,38.60
2023-01-29T17:08:58.241Z,38.70
2023-01-29T17:11:28.951Z,38.70
2023-01-29T17:13:57.183Z,38.70
2023-01-29T17:16:28.508Z,38.70
2023-01-29T17:18:58.559Z,38.70
2023-01-29T17:21:26.526Z,38.70
2023-01-29T17:23:54.671Z,38.70
2023-01-29T17:26:22.726Z,38.60
2023-01-29T17:28:50.893Z,38.70
2023-01-29T17:31:18.966Z,38.70
2023-01-29T17:33:46.982Z,38.70
2023-01-29T17:36:17.901Z,38.70
2023-01-29T17:38:46.009Z,38.70
2023-01-29T17:41:17.193Z,38.70
2023-01-29T17:43:45.260Z,38.70
2023-01-29T17:46:14.560Z,38.80
2023-01-29T17:48:43.008Z,38.70
2023-01-29T17:51:13.053Z,38.70
2023-01-29T17:53:45.811Z,38.70
2023-01-29T17:56:18.152Z,38.70
2023-01-29T17:58:46.335Z,38.70
2023-01-29T18:01:14.354Z,38.70
2023-01-29T18:03:42.465Z,38.70
2023-01-29T18:06:10.838Z,38.60
2023-01-29T18:08:39.306Z,38.60
2023-01-29T18:11:10.060Z,38.70
2023-01-29T18:13:38.075Z,38.70
2023-01-29T18:16:06.465Z,38.70
2023-01-29T18:18:34.545Z,38.70
2023-01-29T18:21:02.522Z,38.70
2023-01-29T18:23:31.331Z,38.70
2023-01-29T18:25:59.457Z,38.70
2023-01-29T18:28:29.088Z,38.60
2023-01-29T18:30:57.153Z,38.60
2023-01-29T18:33:25.870Z,38.60
2023-01-29T18:35:54.986Z,38.70
2023-01-29T18:38:22.988Z,38.70
2023-01-29T18:40:51.188Z,38.70
2023-01-29T18:43:19.164Z,38.70
2023-01-29T18:45:48.875Z,38.70
2023-01-29T18:48:16.855Z,38.70
2023-01-29T18:50:44.873Z,38.80
2023-01-29T18:53:12.857Z,38.80
2023-01-29T18:55:40.996Z,38.80
2023-01-29T18:58:26.286Z,38.90
2023-01-29T19:00:58.431Z,39.60
2023-01-29T19:03:26.477Z,39.10
2023-01-29T19:05:54.475Z,39.20
2023-01-29T19:08:22.495Z,39.30
2023-01-29T19:10:50.576Z,39.60
2023-01-29T19:13:18.597Z,39.80
2023-01-29T19:15:48.397Z,40.10
2023-01-29T19:18:17.763Z,40.50
2023-01-29T19:20:45.717Z,40.70
2023-01-29T19:23:13.692Z,40.90
2023-01-29T19:25:41.655Z,41.00
2023-01-29T19:28:09.643Z,41.00
2023-01-29T19:30:37.647Z,41.00
2023-01-29T19:33:05.798Z,41.00
2023-01-29T19:35:35.275Z,41.00
2023-01-29T19:38:03.297Z,41.00
2023-01-29T19:40:31.332Z,41.00
2023-01-29T19:42:59.452Z,41.00
2023-01-29T19:45:49.645Z,41.30
2023-01-29T19:48:16.061Z,41.40
2023-01-29T19:50:45.773Z,41.60
2023-01-29T19:53:13.760Z,41.60
2023-01-29T19:55:41.808Z,41.70
2023-01-29T19:58:10.437Z,41.80
2023-01-29T20:00:38.494Z,41.70
2023-01-29T20:03:06.554Z,41.80
2023-01-29T20:05:37.437Z,41.90
2023-01-29T20:08:07.157Z,41.90
2023-01-29T20:10:35.163Z,41.80
2023-01-29T20:13:03.240Z,41.90
2023-01-29T20:15:31.254Z,41.90
2023-01-29T20:17:59.800Z,41.90
2023-01-29T20:20:31.041Z,41.90
2023-01-29T20:23:01.729Z,41.90
2023-01-29T20:25:31.283Z,41.70
2023-01-29T20:27:59.249Z,41.70
2023-01-29T20:30:27.267Z,41.70
2023-01-29T20:32:55.306Z,41.60
2023-01-29T20:35:23.484Z,41.70
2023-01-29T20:37:51.450Z,41.60
2023-01-29T20:40:19.725Z,41.60
2023-01-29T20:42:49.709Z,41.60
2023-01-29T20:45:17.998Z,41.60
2023-01-29T20:47:46.074Z,41.70
2023-01-29T20:50:15.318Z,41.80
2023-01-29T20:52:43.746Z,41.80
2023-01-29T20:55:12.679Z,41.90
2023-01-29T20:57:41.214Z,42.00
2023-01-29T21:00:12.901Z,42.10
2023-01-29T21:02:40.967Z,42.10
2023-01-29T21:05:09.342Z,42.10
2023-01-29T21:07:37.351Z,42.20
2023-01-29T21:10:05.905Z,42.30
2023-01-29T21:12:33.885Z,42.30
2023-01-29T21:15:01.886Z,42.30
2023-01-29T21:17:31.662Z,42.40
2023-01-29T21:19:59.622Z,42.40
2023-01-29T21:22:27.843Z,42.50
2023-01-29T21:24:55.825Z,43.20
2023-01-29T21:27:24.924Z,42.60
2023-01-29T21:29:53.001Z,42.70
2023-01-29T21:32:21.322Z,42.60
2023-01-29T21:34:52.610Z,42.50
2023-01-29T21:37:20.769Z,42.50
2023-01-29T21:39:48.751Z,42.40
2023-01-29T21:42:34.189Z,42.30
2023-01-29T21:45:02.191Z,42.20
2023-01-29T21:47:30.223Z,42.00
2023-01-29T21:49:59.872Z,41.90
2023-01-29T21:52:27.853Z,41.80
2023-01-29T21:54:55.944Z,41.60
2023-01-29T21:57:26.490Z,41.60
2023-01-29T21:59:54.643Z,41.60
2023-01-29T22:02:23.089Z,41.60
2023-01-29T22:04:52.308Z,41.60
2023-01-29T22:07:21.734Z,41.60
2023-01-29T22:09:49.813Z,41.60
2023-01-29T22:12:17.909Z,41.50
2023-01-29T22:14:47.372Z,41.30
2023-01-29T22:17:16.490Z,41.30
2023-01-29T22:19:44.982Z,41.20
2023-01-29T22:22:14.518Z,41.10
2023-01-29T22:24:45.132Z,41.10
2023-01-29T22:27:13.364Z,41.00
2023-01-29T22:29:41.312Z,41.70
2023-01-29T22:32:09.418Z,41.10
2023-01-29T22:34:37.386Z,41.10
2023-01-29T22:37:05.348Z,41.10
2023-01-29T22:39:33.330Z,41.10
2023-01-29T22:42:02.634Z,41.10
2023-01-29T22:44:30.757Z,41.10
2023-01-29T22:46:58.720Z,41.10
2023-01-29T22:49:29.479Z,41.10
2023-01-29T22:52:10.864Z,41.10
2023-01-29T22:54:39.643Z,41.10
2023-01-29T22:57:10.973Z,41.80
2023-01-29T22:59:39.001Z,41.10
2023-01-29T23:02:07.319Z,41.10
2023-01-29T23:04:35.382Z,41.10
2023-01-29T23:07:03.687Z,41.00
2023-01-29T23:09:31.663Z,41.00
2023-01-29T23:11:59.648Z,41.00
2023-01-29T23:14:29.029Z,41.00
2023-01-29T23:16:57.048Z,41.00
2023-01-29T23:19:25.052Z,41.00
2023-01-29T23:21:53.017Z,40.90
2023-01-29T23:24:21.039Z,41.00
2023-01-29T23:27:06.566Z,40.80
2023-01-29T23:29:35.949Z,40.70
2023-01-29T23:32:04.543Z,40.70
2023-01-29T23:34:32.545Z,40.50
2023-01-29T23:37:00.525Z,40.40
2023-01-29T23:39:28.556Z,40.30
2023-01-29T23:41:56.555Z,40.20
2023-01-29T23:44:24.658Z,40.20
2023-01-29T23:46:54.113Z,40.10
2023-01-29T23:49:22.151Z,40.10
2023-01-29T23:51:50.196Z,40.00
2023-01-29T23:54:18.233Z,40.10
2023-01-29T23:56:46.390Z,40.10
2023-01-29T23:59:14.765Z,40.00
